Time;durP1;ratioP1;P1;durP2;ratioP2;P2;SDS_P1;SDS_P2;PMS_P1;PMS_P2;Temp;Humidity;BMP_temperature;BMP_pressure;BME280_temperature;BME280_humidity;BME280_pressure;Samples;Min_cycle;Max_cycle;Signal;HPM_P1;HPM_P2
2023/10/19 00:00:33;;;;;;;0.10;0.10;;;;;;;4.94;89.17;98763.81;5105883;28;20048;-69
2023/10/19 00:03:03;;;;;;;0.10;0.10;;;;;;;4.95;88.92;98764.63;5104473;28;20076;-68
2023/10/19 00:05:31;;;;;;;0.00;0.00;;;;;;;4.93;88.97;98761.38;5104710;28;20052;-68
2023/10/19 00:07:59;;;;;;;0.10;0.10;;;;;;;4.91;89.00;98755.38;5105419;28;20075;-68
2023/10/19 00:10:32;;;;;;;0.10;0.10;;;;;;;4.93;89.34;98762.19;5105295;28;20272;-69
2023/10/19 00:13:08;;;;;;;0.00;0.00;;;;;;;4.92;89.60;98759.75;5083296;28;20139;-69
2023/10/19 00:15:40;;;;;;;0.10;0.10;;;;;;;4.95;89.75;98770.84;5105835;28;20137;-68
2023/10/19 00:23:13;;;;;;;0.10;0.10;;;;;;;5.01;89.62;98760.06;5102316;28;20045;-69
2023/10/19 00:25:44;;;;;;;0.10;0.10;;;;;;;5.00;89.58;98761.16;5107148;28;20128;-69
2023/10/19 00:28:12;;;;;;;0.10;0.10;;;;;;;5.03;89.25;98768.75;5086841;28;20051;-69
2023/10/19 00:30:42;;;;;;;0.10;0.10;;;;;;;5.01;89.49;98760.88;5104847;28;20540;-69
2023/10/19 00:33:16;;;;;;;0.10;0.10;;;;;;;5.01;88.95;98765.50;5106913;28;20057;-69
2023/10/19 00:35:46;;;;;;;0.10;0.10;;;;;;;5.01;89.06;98754.66;5107142;28;20556;-68
2023/10/19 00:43:43;;;;;;;0.10;0.10;;;;;;;4.93;88.62;98754.06;5106209;28;20134;-69
2023/10/19 00:48:49;;;;;;;0.05;0.05;;;;;;;4.86;88.50;98760.78;5087394;28;20121;-69
2023/10/19 00:53:59;;;;;;;0.10;0.10;;;;;;;4.87;88.88;98757.00;5108208;28;20043;-68
2023/10/19 00:56:31;;;;;;;0.10;0.10;;;;;;;4.89;89.17;98752.13;5106368;28;20387;-69
2023/10/19 00:59:14;;;;;;;0.10;0.10;;;;;;;4.93;89.20;98761.38;5105163;28;20040;-69
2023/10/19 01:01:47;;;;;;;0.10;0.10;;;;;;;4.90;89.26;98753.75;5103640;28;20047;-68
2023/10/19 01:04:30;;;;;;;0.10;0.10;;;;;;;4.92;89.25;98760.56;5102692;28;20043;-69
2023/10/19 01:09:36;;;;;;;0.10;0.10;;;;;;;4.88;89.03;98759.47;5103019;28;20533;-69
2023/10/19 01:12:18;;;;;;;0.10;0.10;;;;;;;4.88;89.04;98761.34;5084800;28;20050;-69
2023/10/19 01:15:07;;;;;;;0.10;0.10;;;;;;;4.91;89.05;98755.38;5085409;28;20525;-68
2023/10/19 01:17:40;;;;;;;0.10;0.10;;;;;;;4.93;88.86;98754.06;5099297;28;20044;-68
2023/10/19 01:20:18;;;;;;;0.10;0.10;;;;;;;4.97;88.53;98754.34;5085310;28;20096;-69
2023/10/19 01:22:53;;;;;;;0.10;0.10;;;;;;;4.95;88.47;98756.50;5101341;28;20040;-68
2023/10/19 01:25:33;;;;;;;0.10;0.10;;;;;;;4.86;88.42;98737.25;5086587;28;20055;-69
2023/10/19 01:28:07;;;;;;;0.03;0.03;;;;;;;4.95;88.45;98751.91;5086571;28;20043;-68
2023/10/19 01:30:33;;;;;;;0.10;0.10;;;;;;;4.98;88.43;98747.84;5103243;28;20054;-69
2023/10/19 01:33:00;;;;;;;0.10;0.10;;;;;;;4.97;88.52;98746.22;5103683;28;20120;-69
2023/10/19 01:35:27;;;;;;;0.10;0.10;;;;;;;4.95;88.64;98753.81;5107507;28;20046;-68
2023/10/19 01:37:54;;;;;;;0.10;0.10;;;;;;;4.92;88.38;98746.22;5106056;28;20044;-67
2023/10/19 01:40:20;;;;;;;0.10;0.10;;;;;;;4.92;88.52;98747.00;5105053;28;20526;-68
2023/10/19 01:42:47;;;;;;;0.10;0.10;;;;;;;4.90;88.50;98749.16;5100605;28;20047;-68
2023/10/19 01:45:14;;;;;;;0.05;0.05;;;;;;;4.85;88.41;98741.03;5102148;28;20501;-69
2023/10/19 01:47:42;;;;;;;0.10;0.10;;;;;;;4.86;88.90;98745.38;5105813;28;20162;-69
2023/10/19 01:50:19;;;;;;;0.10;0.10;;;;;;;4.88;88.59;98748.63;5103683;28;20058;-68
2023/10/19 01:52:46;;;;;;;0.10;0.10;;;;;;;4.88;89.10;98754.03;5103461;28;20205;-69
2023/10/19 01:55:20;;;;;;;0.10;0.10;;;;;;;4.75;88.57;98733.63;5104651;28;20060;-68
2023/10/19 01:57:46;;;;;;;0.00;0.00;;;;;;;4.86;88.43;98750.78;5102844;28;20073;-69
2023/10/19 02:00:22;;;;;;;0.10;0.10;;;;;;;4.81;87.87;98739.91;5085174;28;20078;-69
2023/10/19 02:02:49;;;;;;;0.00;0.00;;;;;;;4.82;87.97;98744.25;5085208;28;20042;-69
2023/10/19 02:05:18;;;;;;;0.10;0.10;;;;;;;4.82;88.28;98745.06;5101056;28;20047;-69
2023/10/19 02:07:44;;;;;;;0.10;0.10;;;;;;;4.86;88.53;98741.81;5104094;28;20047;-69
2023/10/19 02:10:11;;;;;;;0.00;0.00;;;;;;;4.85;88.25;98749.16;5100481;28;20051;-68
2023/10/19 02:12:41;;;;;;;0.00;0.00;;;;;;;4.81;88.46;98739.91;5104507;28;20051;-69
2023/10/19 02:15:09;;;;;;;0.10;0.10;;;;;;;4.84;88.62;98733.97;5102428;28;20054;-69
2023/10/19 02:17:35;;;;;;;0.10;0.10;;;;;;;4.83;88.28;98743.16;5102698;28;20235;-70
2023/10/19 02:20:13;;;;;;;0.10;0.10;;;;;;;4.85;88.38;98738.31;5101576;28;20044;-69
2023/10/19 02:22:39;;;;;;;0.10;0.10;;;;;;;4.86;88.32;98734.53;5101299;28;20084;-69
2023/10/19 02:25:07;;;;;;;0.10;0.10;;;;;;;4.87;88.54;98743.44;5103747;28;20041;-69
2023/10/19 02:27:35;;;;;;;0.10;0.10;;;;;;;4.86;88.53;98739.13;5103361;28;20092;-69
2023/10/19 02:30:05;;;;;;;0.10;0.10;;;;;;;4.90;88.85;98742.91;5102221;28;20138;-68
2023/10/19 02:32:33;;;;;;;0.10;0.10;;;;;;;4.90;89.16;98741.03;5080256;28;20047;-68
2023/10/19 02:34:59;;;;;;;0.10;0.10;;;;;;;4.89;89.21;98735.88;5104569;28;20043;-68
2023/10/19 02:37:26;;;;;;;0.10;0.10;;;;;;;4.86;89.08;98733.69;5089186;28;20047;-69
2023/10/19 02:39:52;;;;;;;0.00;0.00;;;;;;;4.83;88.97;98741.28;5103988;28;20052;-68
2023/10/19 02:42:22;;;;;;;0.10;0.10;;;;;;;4.80;89.15;98746.41;5106005;28;20047;-69
2023/10/19 02:44:50;;;;;;;0.10;0.10;;;;;;;4.82;89.64;98745.06;5087726;28;20044;-68
2023/10/19 02:47:18;;;;;;;0.10;0.10;;;;;;;4.87;89.81;98743.44;5102275;28;20055;-68
2023/10/19 02:49:50;;;;;;;0.10;0.10;;;;;;;4.86;89.26;98747.25;5103877;28;20036;-68
2023/10/19 02:52:17;;;;;;;0.10;0.10;;;;;;;4.84;89.44;98742.09;5103173;28;20052;-68
2023/10/19 02:54:43;;;;;;;0.10;0.10;;;;;;;4.83;89.78;98744.00;5100622;28;20043;-69
2023/10/19 02:57:13;;;;;;;0.10;0.10;;;;;;;4.86;89.44;98744.53;5103926;28;20083;-68
2023/10/19 02:59:39;;;;;;;0.10;0.10;;;;;;;4.86;89.79;98747.25;5104426;28;20063;-69
2023/10/19 03:04:41;;;;;;;0.10;0.10;;;;;;;4.83;90.17;98744.00;5103431;28;20124;-69
2023/10/19 03:07:08;;;;;;;0.10;0.10;;;;;;;4.82;90.74;98734.22;5103953;28;20135;-69
2023/10/19 03:09:37;;;;;;;0.10;0.10;;;;;;;4.81;90.85;98731.78;5102389;28;20044;-68
2023/10/19 03:12:09;;;;;;;0.10;0.10;;;;;;;4.82;91.19;98727.97;5099663;28;20077;-69
2023/10/19 03:14:37;;;;;;;0.10;0.10;;;;;;;4.82;91.31;98726.09;5097161;28;20085;-68
2023/10/19 03:17:04;;;;;;;;;;;;;;;4.83;91.51;98730.44;5086074;28;20717;-68
2023/10/19 03:19:31;;;;;;;0.10;0.10;;;;;;;4.88;91.60;98736.97;5102250;28;19981;-68
2023/10/19 03:22:03;;;;;;;0.10;0.10;;;;;;;4.89;91.83;98741.28;5102155;28;20143;-68
2023/10/19 03:24:42;;;;;;;0.10;0.10;;;;;;;4.83;91.42;98732.31;5099654;28;20032;-68
2023/10/19 03:29:40;;;;;;;0.10;0.10;;;;;;;4.76;91.88;98731.75;5102089;28;20051;-69
2023/10/19 03:32:07;;;;;;;0.10;0.10;;;;;;;4.77;91.99;98738.81;5103429;28;20096;-68
2023/10/19 03:34:34;;;;;;;0.10;0.10;;;;;;;4.76;92.06;98731.75;5089228;28;20679;-68
2023/10/19 03:37:12;;;;;;;0.10;0.10;;;;;;;4.78;92.18;98730.44;5107479;28;20077;-68
2023/10/19 03:39:40;;;;;;;0.10;0.10;;;;;;;4.80;92.16;98736.38;5105121;28;20059;-68
2023/10/19 03:42:06;;;;;;;0.10;0.10;;;;;;;4.75;92.10;98732.84;5104468;28;20062;-69
2023/10/19 03:47:19;;;;;;;0.03;0.03;;;;;;;4.74;92.07;98742.03;5086879;28;20474;-68
2023/10/19 03:49:46;;;;;;;0.10;0.10;;;;;;;4.70;92.33;98743.66;5089611;28;20036;-69
2023/10/19 03:54:41;;;;;;;0.10;0.10;;;;;;;4.73;92.79;98743.91;5108901;28;19934;-69
2023/10/19 03:57:22;;;;;;;0.10;0.10;;;;;;;4.70;92.61;98744.44;5105334;28;20050;-69
2023/10/19 03:59:50;;;;;;;0.10;0.10;;;;;;;4.71;92.97;98745.28;5104087;28;20079;-69
2023/10/19 04:02:18;;;;;;;0.10;0.10;;;;;;;4.75;93.00;98746.38;5069735;28;20120;-69
2023/10/19 04:04:52;;;;;;;0.00;0.00;;;;;;;4.81;93.06;98745.31;5104952;28;20035;-69
2023/10/19 04:07:26;;;;;;;0.10;0.10;;;;;;;4.82;93.28;98745.06;5105591;28;20047;-69
2023/10/19 04:10:08;;;;;;;0.10;0.10;;;;;;;4.80;93.19;98743.69;5104096;28;20085;-69
2023/10/19 04:12:37;;;;;;;0.10;0.10;;;;;;;4.83;93.21;98741.28;5089562;28;20154;-69
2023/10/19 04:15:18;;;;;;;0.10;0.10;;;;;;;4.83;93.42;98743.16;5107022;28;20415;-69
2023/10/19 04:17:46;;;;;;;0.00;0.00;;;;;;;4.83;93.18;98744.00;5099098;28;20044;-69
2023/10/19 04:22:44;;;;;;;0.00;0.00;;;;;;;4.86;92.80;98739.13;5103342;28;20048;-69
2023/10/19 04:25:15;;;;;;;0.10;0.10;;;;;;;4.81;93.00;98750.72;5105497;28;20053;-68
2023/10/19 04:27:42;;;;;;;0.10;0.10;;;;;;;4.81;93.19;98750.72;5099723;28;20047;-68
2023/10/19 04:30:15;;;;;;;0.10;0.10;;;;;;;4.81;93.23;98750.72;5096609;28;20043;-68
2023/10/19 04:32:42;;;;;;;0.10;0.10;;;;;;;4.88;93.26;98750.50;5101156;28;20062;-69
2023/10/19 04:35:09;;;;;;;0.10;0.10;;;;;;;4.93;93.29;98750.53;5087443;28;20069;-68
2023/10/19 04:37:35;;;;;;;0.10;0.10;;;;;;;4.93;93.08;98747.84;5086197;28;20066;-68
2023/10/19 04:40:03;;;;;;;0.10;0.10;;;;;;;4.95;92.79;98746.47;5105135;28;20043;-68
2023/10/19 04:42:32;;;;;;;0.10;0.10;;;;;;;4.97;92.62;98748.94;5104123;28;20054;-69
2023/10/19 04:44:59;;;;;;;0.10;0.10;;;;;;;4.98;92.46;98753.28;5104928;28;20555;-68
2023/10/19 04:47:25;;;;;;;0.00;0.00;;;;;;;5.01;92.51;98750.03;5086634;28;20055;-68
2023/10/19 04:49:52;;;;;;;0.00;0.00;;;;;;;5.08;92.06;98749.78;5104582;28;20117;-68
2023/10/19 04:52:19;;;;;;;0.10;0.10;;;;;;;5.06;92.05;98757.38;5105216;28;20066;-69
2023/10/19 04:54:46;;;;;;;0.10;0.10;;;;;;;5.09;92.20;98749.53;5101939;28;20726;-69
2023/10/19 04:57:13;;;;;;;0.10;0.10;;;;;;;5.16;92.21;98757.44;5106438;28;20054;-69
2023/10/19 04:59:41;;;;;;;;;;;;;;;5.22;92.19;98752.81;5106170;28;20142;-69
2023/10/19 05:02:09;;;;;;;0.10;0.10;;;;;;;5.22;91.45;98753.66;5069133;28;19928;-69
2023/10/19 05:04:35;;;;;;;0.10;0.10;;;;;;;5.07;91.12;98753.59;5105756;28;20048;-68
2023/10/19 05:07:03;;;;;;;0.10;0.10;;;;;;;5.13;91.32;98749.81;5104573;28;20050;-69
2023/10/19 05:09:29;;;;;;;;;;;;;;;5.16;91.26;98752.00;5106837;28;20101;-68
2023/10/19 05:11:56;;;;;;;0.10;0.10;;;;;;;5.15;91.39;98757.69;5106183;28;20016;-69
2023/10/19 05:14:24;;;;;;;0.10;0.10;;;;;;;5.17;91.32;98747.38;5104562;28;20050;-69
2023/10/19 05:16:51;;;;;;;0.10;0.10;;;;;;;5.23;90.72;98755.28;5106386;28;20075;-69
2023/10/19 05:19:17;;;;;;;0.10;0.10;;;;;;;5.27;90.51;98752.03;5104148;28;20039;-69
2023/10/19 05:21:44;;;;;;;0.00;0.00;;;;;;;5.32;90.47;98754.78;5107769;28;20417;-69
2023/10/19 05:24:11;;;;;;;0.10;0.10;;;;;;;5.41;90.48;98761.31;5088195;28;20065;-69
2023/10/19 05:26:37;;;;;;;0.10;0.10;;;;;;;5.36;89.72;98756.66;5104028;28;20142;-69
2023/10/19 05:29:03;;;;;;;0.10;0.10;;;;;;;5.29;89.45;98761.53;5105812;28;20048;-69
2023/10/19 05:31:31;;;;;;;0.10;0.10;;;;;;;5.24;89.70;98754.19;5120853;27;20042;-69
2023/10/19 05:33:57;;;;;;;0.10;0.10;;;;;;;5.33;89.95;98764.53;5103043;28;20052;-69
2023/10/19 05:36:25;;;;;;;0.10;0.10;;;;;;;5.34;89.71;98769.69;5100978;28;20071;-69
2023/10/19 05:38:52;;;;;;;0.03;0.03;;;;;;;5.30;89.65;98765.88;5100031;28;20202;-69
2023/10/19 05:41:21;;;;;;;0.10;0.10;;;;;;;5.27;89.63;98762.88;5101869;28;20050;-68
2023/10/19 05:43:47;;;;;;;0.10;0.10;;;;;;;5.27;89.38;98771.00;5098226;28;20099;-69
2023/10/19 05:46:18;;;;;;;0.10;0.10;;;;;;;5.28;89.19;98773.47;5102503;28;20094;-69
2023/10/19 05:48:47;;;;;;;0.10;0.10;;;;;;;5.27;88.92;98768.28;5100488;28;20060;-69
2023/10/19 05:51:14;;;;;;;0.10;0.10;;;;;;;5.21;88.91;98767.44;5088009;28;20090;-69
2023/10/19 05:53:41;;;;;;;0.10;0.10;;;;;;;5.23;89.34;98773.44;5103684;28;20047;-69
2023/10/19 05:56:08;;;;;;;0.10;0.10;;;;;;;5.25;89.60;98763.97;5098376;28;20070;-71
2023/10/19 05:58:34;;;;;;;0.10;0.10;;;;;;;5.34;89.13;98777.81;5101261;28;20048;-69
2023/10/19 06:01:00;;;;;;;0.10;0.10;;;;;;;5.31;88.94;98770.22;5104332;28;20078;-69
2023/10/19 06:03:27;;;;;;;0.10;0.10;;;;;;;5.27;89.00;98777.25;5104298;28;20414;-69
2023/10/19 06:05:56;;;;;;;0.00;0.00;;;;;;;5.36;88.91;98772.13;5101780;28;20154;-69
2023/10/19 06:08:22;;;;;;;0.10;0.10;;;;;;;5.44;88.52;98774.31;5104139;28;20463;-69
2023/10/19 06:10:52;;;;;;;0.00;0.00;;;;;;;5.57;88.26;98772.19;5074554;28;20047;-69
2023/10/19 06:13:19;;;;;;;0.10;0.10;;;;;;;5.69;88.36;98775.50;5085960;28;20113;-69
2023/10/19 06:15:45;;;;;;;0.10;0.10;;;;;;;5.68;87.46;98765.72;5090166;28;20043;-69
2023/10/19 06:18:13;;;;;;;0.10;0.10;;;;;;;5.72;87.13;98772.25;5105601;28;20431;-69
2023/10/19 06:20:43;;;;;;;;;;;;;;;5.77;87.41;98779.56;5102993;28;20103;-69
2023/10/19 06:23:12;;;;;;;0.10;0.10;;;;;;;5.78;87.09;98775.78;5102082;28;19932;-69
2023/10/19 06:25:38;;;;;;;0.10;0.10;;;;;;;5.75;87.29;98779.84;5103607;28;20084;-69
2023/10/19 06:28:07;;;;;;;0.10;0.10;;;;;;;5.78;86.69;98775.78;5082750;28;20155;-69
2023/10/19 06:30:36;;;;;;;0.10;0.10;;;;;;;5.76;86.48;98776.03;5101813;28;20067;-69
2023/10/19 06:33:03;;;;;;;0.10;0.10;;;;;;;5.86;86.17;98763.59;5107241;28;20035;-70
2023/10/19 06:35:33;;;;;;;0.10;0.10;;;;;;;5.91;86.27;98771.72;5105394;28;20519;-69
2023/10/19 06:38:01;;;;;;;0.10;0.10;;;;;;;5.96;85.84;98774.47;5102930;28;20051;-69
2023/10/19 06:40:28;;;;;;;0.10;0.10;;;;;;;5.92;85.79;98774.19;5103665;28;20044;-70
2023/10/19 06:42:56;;;;;;;0.10;0.10;;;;;;;5.94;85.98;98777.44;5102433;28;20573;-69
2023/10/19 06:45:22;;;;;;;0.00;0.00;;;;;;;5.96;85.32;98772.56;5101185;28;20038;-69
2023/10/19 06:47:49;;;;;;;0.10;0.10;;;;;;;5.96;85.11;98763.59;5102987;28;20186;-70
2023/10/19 06:50:17;;;;;;;0.00;0.00;;;;;;;6.06;85.22;98771.78;5082324;28;20044;-70
2023/10/19 06:52:44;;;;;;;0.10;0.10;;;;;;;6.08;85.29;98766.09;5100483;28;20048;-70
2023/10/19 06:55:16;;;;;;;0.10;0.10;;;;;;;6.19;85.17;98775.03;5104628;28;20050;-70
2023/10/19 06:57:44;;;;;;;0.10;0.10;;;;;;;6.21;84.33;98772.88;5098255;28;20067;-69
2023/10/19 07:00:14;;;;;;;0.10;0.10;;;;;;;6.12;83.55;98772.59;5101334;28;20051;-69
2023/10/19 07:02:41;;;;;;;0.10;0.10;;;;;;;6.09;83.41;98773.97;5100752;28;20380;-69
2023/10/19 07:05:11;;;;;;;0.10;0.10;;;;;;;6.08;83.23;98775.03;5082097;28;20044;-69
2023/10/19 07:07:40;;;;;;;0.10;0.10;;;;;;;6.09;82.18;98773.16;5097792;27;20043;-69
2023/10/19 07:10:08;;;;;;;0.10;0.10;;;;;;;6.13;82.22;98787.78;5086390;28;20150;-70
2023/10/19 07:12:34;;;;;;;0.10;0.10;;;;;;;6.17;81.97;98782.66;5103310;28;20190;-69
2023/10/19 07:15:03;;;;;;;0.10;0.10;;;;;;;6.19;81.73;98766.91;5107624;28;20048;-69
2023/10/19 07:17:31;;;;;;;0.10;0.10;;;;;;;6.19;81.36;98775.88;5108285;28;20055;-70
2023/10/19 07:19:58;;;;;;;0.10;0.10;;;;;;;6.17;80.86;98788.91;5110079;28;20327;-69
2023/10/19 07:22:24;;;;;;;0.10;0.10;;;;;;;6.17;81.42;98785.38;5108186;28;20369;-70
2023/10/19 07:24:51;;;;;;;0.10;0.10;;;;;;;6.25;81.56;98787.56;5110177;28;20052;-69
2023/10/19 07:27:20;;;;;;;0.10;0.10;;;;;;;6.36;81.64;98794.59;5101531;28;20698;-71
2023/10/19 07:29:49;;;;;;;0.10;0.10;;;;;;;6.39;81.59;98785.09;5094291;28;20458;-70
2023/10/19 07:32:18;;;;;;;0.10;0.10;;;;;;;6.40;81.65;98797.59;5101776;28;20069;-70
2023/10/19 07:34:45;;;;;;;0.10;0.10;;;;;;;6.35;81.79;98787.53;5106571;28;20058;-70
2023/10/19 07:37:16;;;;;;;0.10;0.10;;;;;;;6.34;81.73;98791.34;5110933;28;20308;-70
2023/10/19 07:39:45;;;;;;;0.10;0.10;;;;;;;6.30;81.64;98789.44;5110387;27;20072;-70
2023/10/19 07:42:11;;;;;;;0.00;0.00;;;;;;;6.25;81.98;98798.41;5108024;28;20510;-70
2023/10/19 07:44:38;;;;;;;0.10;0.10;;;;;;;6.23;82.05;98787.81;5107848;28;20039;-70
2023/10/19 07:47:06;;;;;;;0.10;0.10;;;;;;;6.17;81.53;98788.06;5105631;28;20052;-69
2023/10/19 07:49:34;;;;;;;0.00;0.00;;;;;;;6.11;81.77;98792.69;5105642;28;20124;-70
2023/10/19 07:52:00;;;;;;;0.10;0.10;;;;;;;6.05;81.82;98797.28;5108733;28;20100;-70
2023/10/19 07:54:27;;;;;;;0.10;0.10;;;;;;;6.03;82.45;98795.94;5106114;28;20515;-71
2023/10/19 07:56:54;;;;;;;0.10;0.10;;;;;;;6.02;82.73;98805.97;5105153;28;20121;-71
2023/10/19 07:59:21;;;;;;;0.10;0.10;;;;;;;6.02;83.19;98794.31;5089309;28;20042;-71
2023/10/19 08:01:48;;;;;;;0.10;0.10;;;;;;;6.07;83.59;98802.44;5109920;28;20074;-71
2023/10/19 08:04:14;;;;;;;0.10;0.10;;;;;;;6.13;83.38;98800.56;5105407;28;20035;-70
2023/10/19 08:06:42;;;;;;;0.10;0.10;;;;;;;6.26;83.47;98802.75;5106883;28;20047;-71
2023/10/19 08:09:11;;;;;;;0.10;0.10;;;;;;;6.39;83.17;98801.38;5106388;28;20295;-70
2023/10/19 08:11:37;;;;;;;0.10;0.10;;;;;;;6.51;82.97;98795.69;5107552;28;20397;-70
2023/10/19 08:14:05;;;;;;;0.10;0.10;;;;;;;6.58;82.61;98801.66;5105463;28;20050;-70
2023/10/19 08:16:31;;;;;;;0.10;0.10;;;;;;;6.53;82.48;98783.47;5104295;28;20058;-69
2023/10/19 08:18:57;;;;;;;0.10;0.10;;;;;;;6.71;82.24;98807.59;5105671;28;20051;-69
2023/10/19 08:21:25;;;;;;;0.10;0.10;;;;;;;6.67;82.28;98807.34;5090100;27;20475;-69
2023/10/19 08:23:53;;;;;;;0.10;0.10;;;;;;;6.65;82.24;98807.63;5090716;28;20047;-69
2023/10/19 08:26:21;;;;;;;0.10;0.10;;;;;;;6.61;82.48;98806.53;5089362;28;20410;-69
2023/10/19 08:28:47;;;;;;;;;;;;;;;6.58;82.54;98809.81;5107340;28;20065;-69
2023/10/19 08:31:14;;;;;;;0.10;0.10;;;;;;;6.49;82.33;98812.25;5108306;28;20014;-69
2023/10/19 08:33:41;;;;;;;0.00;0.00;;;;;;;6.42;82.17;98809.00;5106579;28;20043;-69
2023/10/19 08:36:17;;;;;;;0.10;0.10;;;;;;;6.53;82.48;98809.78;5107980;28;20153;-70
2023/10/19 08:38:43;;;;;;;0.10;0.10;;;;;;;6.57;82.38;98808.19;5070790;28;20043;-69
2023/10/19 08:41:11;;;;;;;0.10;0.10;;;;;;;6.55;82.68;98812.25;5090767;28;20052;-69
2023/10/19 08:43:39;;;;;;;0.10;0.10;;;;;;;6.57;82.74;98807.34;5090443;28;20065;-70
2023/10/19 08:46:06;;;;;;;0.10;0.10;;;;;;;6.60;83.00;98804.91;5108315;28;20060;-69
2023/10/19 08:48:34;;;;;;;0.10;0.10;;;;;;;6.66;83.31;98806.53;5105451;28;20395;-69
2023/10/19 08:51:03;;;;;;;0.10;0.10;;;;;;;6.79;83.32;98805.19;5105806;28;20147;-69
2023/10/19 08:53:30;;;;;;;0.10;0.10;;;;;;;6.88;83.24;98812.75;5105785;28;20048;-69
2023/10/19 08:55:57;;;;;;;0.10;0.10;;;;;;;6.89;83.57;98812.50;5085833;28;20066;-69
2023/10/19 08:58:27;;;;;;;0.00;0.00;;;;;;;6.97;83.40;98811.13;5105342;28;20078;-70
2023/10/19 09:00:54;;;;;;;0.10;0.10;;;;;;;6.99;83.50;98805.38;5088813;28;20044;-69
2023/10/19 09:03:21;;;;;;;0.10;0.10;;;;;;;7.11;82.76;98816.00;5105122;28;20093;-69
2023/10/19 09:05:47;;;;;;;;;;;;;;;7.10;82.60;98815.16;5089387;28;20524;-69
2023/10/19 09:08:18;;;;;;;0.10;0.10;;;;;;;7.13;81.95;98817.31;5086386;28;20018;-69
2023/10/19 09:10:45;;;;;;;0.10;0.10;;;;;;;7.16;81.92;98816.75;5104229;28;20049;-69
2023/10/19 09:13:12;;;;;;;0.10;0.10;;;;;;;7.17;81.91;98815.66;5102532;28;20051;-69
2023/10/19 09:15:41;;;;;;;0.10;0.10;;;;;;;7.13;82.04;98821.97;5102001;28;20070;-69
2023/10/19 09:18:14;;;;;;;0.10;0.10;;;;;;;7.06;82.40;98819.53;5095273;28;20478;-68
2023/10/19 09:20:42;;;;;;;0.10;0.10;;;;;;;6.90;82.21;98818.72;5085044;28;20051;-68
2023/10/19 09:23:08;;;;;;;0.10;0.10;;;;;;;6.81;82.72;98832.06;5086728;28;20102;-69
2023/10/19 09:25:35;;;;;;;0.10;0.10;;;;;;;6.74;83.52;98817.94;5088080;28;20054;-68
2023/10/19 09:28:05;;;;;;;0.10;0.10;;;;;;;6.81;83.84;98834.78;5102748;28;20104;-69
2023/10/19 09:30:33;;;;;;;0.10;0.10;;;;;;;6.81;83.49;98838.31;5107270;28;20049;-69
2023/10/19 09:33:04;;;;;;;0.10;0.10;;;;;;;6.67;83.07;98829.88;5106479;28;20132;-69
2023/10/19 09:35:31;;;;;;;0.10;0.10;;;;;;;6.52;82.79;98827.19;5098660;28;20043;-69
2023/10/19 09:37:59;;;;;;;;;;;;;;;6.34;83.09;98837.50;5094593;28;20044;-68
2023/10/19 09:40:29;;;;;;;0.10;0.10;;;;;;;6.20;83.42;98839.09;5068516;28;20022;-69
2023/10/19 09:42:58;;;;;;;0.10;0.10;;;;;;;6.08;83.96;98840.16;5097222;28;20510;-69
2023/10/19 09:45:30;;;;;;;0.10;0.10;;;;;;;6.00;84.29;98835.25;5097398;28;20100;-69
2023/10/19 09:47:58;;;;;;;0.10;0.10;;;;;;;6.00;84.48;98831.69;5090059;27;20081;-69
2023/10/19 09:50:26;;;;;;;0.10;0.10;;;;;;;6.02;84.92;98843.16;5091400;28;20042;-69
2023/10/19 09:52:52;;;;;;;;;;;;;;;6.08;85.71;98837.44;5092428;28;20059;-69
2023/10/19 09:55:25;;;;;;;0.10;0.10;;;;;;;6.23;85.79;98836.66;5097427;28;19923;-69
2023/10/19 09:57:57;;;;;;;0.10;0.10;;;;;;;6.46;85.22;98834.50;5078125;28;20579;-69
2023/10/19 10:00:24;;;;;;;0.10;0.10;;;;;;;6.53;83.69;98835.06;5099680;27;20594;-69
2023/10/19 10:02:50;;;;;;;0.10;0.10;;;;;;;6.53;83.35;98824.19;5097922;28;20046;-69
2023/10/19 10:05:48;;;;;;;0.10;0.10;;;;;;;6.64;83.18;98835.06;5102104;28;20043;-68
2023/10/19 10:08:30;;;;;;;0.10;0.10;;;;;;;6.83;82.31;98834.50;5083259;28;20052;-69
2023/10/19 10:10:56;;;;;;;0.20;0.20;;;;;;;6.95;81.40;98830.41;5095660;28;20055;-69
2023/10/19 10:13:37;;;;;;;0.17;0.17;;;;;;;7.23;81.74;98822.75;5096142;28;20503;-69
2023/10/19 10:16:06;;;;;;;0.10;0.10;;;;;;;7.71;80.19;98829.63;5096901;28;20044;-68
2023/10/19 10:18:36;;;;;;;0.10;0.10;;;;;;;8.14;79.03;98836.47;5092813;28;20052;-69
2023/10/19 10:21:11;;;;;;;0.10;0.10;;;;;;;8.44;77.54;98830.00;5114607;27;20116;-69
2023/10/19 10:23:45;;;;;;;0.10;0.10;;;;;;;8.78;76.46;98829.19;5092171;28;20599;-69
2023/10/19 10:26:13;;;;;;;0.10;0.10;;;;;;;8.78;74.36;98833.84;5105938;28;20043;-69
2023/10/19 10:28:40;;;;;;;0.10;0.10;;;;;;;8.66;74.39;98826.03;5098943;28;20550;-69
2023/10/19 10:31:14;;;;;;;0.10;0.10;;;;;;;8.77;73.19;98830.28;5095106;28;20541;-69
2023/10/19 10:33:42;;;;;;;0.10;0.10;;;;;;;8.92;72.65;98828.53;5099013;28;20051;-69
2023/10/19 10:36:11;;;;;;;0.10;0.10;;;;;;;8.98;71.80;98827.38;5100705;28;20054;-69
2023/10/19 10:38:37;;;;;;;0.10;0.10;;;;;;;8.96;71.05;98829.56;5081377;28;20051;-69
2023/10/19 10:41:04;;;;;;;0.10;0.10;;;;;;;9.01;70.85;98831.44;5103850;28;20043;-69
2023/10/19 10:43:30;;;;;;;0.13;0.13;;;;;;;9.11;70.43;98827.78;5090946;28;20146;-69
2023/10/19 10:46:04;;;;;;;0.20;0.20;;;;;;;9.39;69.55;98828.03;5097012;28;20063;-69
2023/10/19 10:48:32;;;;;;;0.20;0.20;;;;;;;9.92;67.58;98836.13;5078563;28;20499;-69
2023/10/19 10:50:58;;;;;;;0.20;0.20;;;;;;;10.61;65.17;98825.81;5092950;28;20052;-69
2023/10/19 10:53:26;;;;;;;0.30;0.30;;;;;;;11.64;61.69;98828.56;5093062;28;20566;-69
2023/10/19 10:55:53;;;;;;;0.20;0.20;;;;;;;12.50;58.88;98834.38;5084149;28;20127;-69
2023/10/19 10:58:22;;;;;;;0.10;0.10;;;;;;;12.54;58.47;98826.31;5085475;28;20038;-72
2023/10/19 11:00:51;;;;;;;0.10;0.10;;;;;;;11.79;59.41;98819.25;5071798;28;20054;-69
2023/10/19 11:03:17;;;;;;;0.10;0.10;;;;;;;11.04;61.72;98830.28;5076076;28;20139;-69
2023/10/19 11:05:46;;;;;;;0.10;0.10;;;;;;;10.39;64.02;98840.91;5094891;28;20491;-69
2023/10/19 11:08:14;;;;;;;0.10;0.10;;;;;;;9.88;66.15;98834.25;5095842;28;20566;-69
2023/10/19 11:10:43;;;;;;;0.10;0.10;;;;;;;9.34;67.68;98837.91;5088821;28;20047;-70
2023/10/19 11:13:11;;;;;;;0.10;0.10;;;;;;;9.02;69.02;98835.78;5089184;28;20528;-70
2023/10/19 11:15:38;;;;;;;0.10;0.10;;;;;;;8.75;70.35;98832.50;5097647;28;20097;-69
2023/10/19 11:18:07;;;;;;;0.10;0.10;;;;;;;8.54;70.51;98826.41;5081708;28;20515;-69
2023/10/19 11:20:35;;;;;;;0.10;0.10;;;;;;;8.40;70.94;98834.38;5099853;28;20050;-70
2023/10/19 11:23:02;;;;;;;0.10;0.10;;;;;;;8.27;71.24;98837.75;5102171;28;20043;-70
2023/10/19 11:25:31;;;;;;;0.10;0.10;;;;;;;8.17;71.68;98836.72;5100102;28;20142;-70
2023/10/19 11:28:00;;;;;;;0.10;0.10;;;;;;;8.02;71.94;98839.53;5084407;28;20054;-69
2023/10/19 11:30:28;;;;;;;0.10;0.10;;;;;;;7.92;73.05;98845.84;5086992;28;20043;-70
2023/10/19 11:33:01;;;;;;;0.10;0.10;;;;;;;7.88;73.55;98839.34;5108124;28;20215;-68
2023/10/19 11:35:29;;;;;;;0.10;0.10;;;;;;;7.76;73.99;98834.25;5106658;28;20082;-69
2023/10/19 11:37:57;;;;;;;0.10;0.10;;;;;;;7.61;74.57;98837.81;5070458;28;20174;-69
2023/10/19 11:40:25;;;;;;;0.10;0.10;;;;;;;7.57;74.85;98834.88;5103453;28;20040;-69
2023/10/19 11:42:51;;;;;;;0.10;0.10;;;;;;;7.53;75.12;98833.78;5106112;28;20063;-69
2023/10/19 11:45:19;;;;;;;0.10;0.10;;;;;;;7.52;75.20;98832.97;5089928;28;20056;-69
2023/10/19 11:47:46;;;;;;;0.10;0.10;;;;;;;7.54;74.96;98826.44;5106011;28;20043;-69
2023/10/19 11:50:17;;;;;;;0.10;0.10;;;;;;;7.56;74.95;98830.50;5087564;28;20193;-69
2023/10/19 11:52:48;;;;;;;0.10;0.10;;;;;;;7.45;75.59;98834.38;5106617;28;20048;-69
2023/10/19 11:55:15;;;;;;;0.10;0.10;;;;;;;7.36;75.52;98834.94;5110431;28;20051;-69
2023/10/19 11:57:43;;;;;;;0.10;0.10;;;;;;;7.30;76.48;98830.59;5109139;28;20113;-69
2023/10/19 12:00:19;;;;;;;0.10;0.10;;;;;;;7.14;76.79;98829.81;5107076;28;20085;-69
2023/10/19 12:02:48;;;;;;;0.00;0.00;;;;;;;6.99;77.83;98830.69;5087427;28;20173;-69
2023/10/19 12:05:14;;;;;;;0.10;0.10;;;;;;;6.72;78.63;98817.41;5106033;27;20566;-69
2023/10/19 12:07:41;;;;;;;0.10;0.10;;;;;;;6.77;79.35;98839.94;5087535;28;20079;-69
2023/10/19 12:10:09;;;;;;;0.10;0.10;;;;;;;6.74;79.94;98840.47;5087844;28;20061;-69
2023/10/19 12:12:36;;;;;;;0.10;0.10;;;;;;;6.72;80.44;98839.94;5107483;28;20429;-69
2023/10/19 12:15:03;;;;;;;0.10;0.10;;;;;;;6.70;80.91;98838.59;5105023;28;20134;-69
2023/10/19 12:17:31;;;;;;;0.10;0.10;;;;;;;6.69;81.00;98836.94;5106550;28;20488;-69
2023/10/19 12:19:59;;;;;;;0.00;0.00;;;;;;;6.61;81.12;98836.44;5106081;28;20048;-69
2023/10/19 12:22:32;;;;;;;0.00;0.00;;;;;;;6.61;81.38;98843.75;5106211;28;20036;-69